Time;durP1;ratioP1;P1;durP2;ratioP2;P2;SDS_P1;SDS_P2;PMS_P1;PMS_P2;Temp;Humidity;BMP_temperature;BMP_pressure;BME280_temperature;BME280_humidity;BME280_pressure;Samples;Min_cycle;Max_cycle;Signal;HPM_P1;HPM_P2
2022/06/25 00:01:17;;;;;;;;;1.75;1.00;;;;;21.96;50.08;100547.13;5096826;27;45421;-74
2022/06/25 00:03:43;;;;;;;;;2.00;2.00;;;;;22.03;50.49;100564.63;5093828;27;45563;-74
2022/06/25 00:06:09;;;;;;;;;2.75;2.00;;;;;22.17;50.51;100586.09;5101801;27;46326;-74
2022/06/25 00:08:36;;;;;;;;;2.00;1.00;;;;;22.01;51.00;100558.47;5102047;27;45247;-75
2022/06/25 00:11:02;;;;;;;;;1.00;1.00;;;;;22.10;50.41;100568.59;5102098;27;45388;-75
2022/06/25 00:13:28;;;;;;;;;1.75;1.75;;;;;22.03;51.00;100572.78;5095916;27;45424;-74
2022/06/25 00:15:54;;;;;;;;;2.00;1.25;;;;;21.80;50.89;100523.06;5100584;27;45422;-74
2022/06/25 00:18:19;;;;;;;;;2.00;2.00;;;;;22.03;51.51;100561.91;5101746;27;45488;-72
2022/06/25 00:20:45;;;;;;;;;2.00;1.00;;;;;21.79;52.25;100527.63;5101555;27;45592;-72
2022/06/25 00:23:11;;;;;;;;;2.25;2.25;;;;;21.95;51.71;100548.09;5101337;27;46355;-72
2022/06/25 00:25:37;;;;;;;;;2.00;2.00;;;;;22.05;51.98;100561.78;5101219;27;45396;-72
2022/06/25 00:28:03;;;;;;;;;1.50;1.50;;;;;21.92;52.29;100548.34;5101484;27;45431;-72
2022/06/25 00:30:29;;;;;;;;;3.00;2.75;;;;;21.97;51.82;100560.56;5080275;27;45287;-72
2022/06/25 00:32:55;;;;;;;;;2.75;2.00;;;;;21.99;52.49;100565.88;5094616;27;45204;-72
2022/06/25 00:35:21;;;;;;;;;1.50;1.25;;;;;22.01;52.35;100569.34;5101516;27;45310;-72
2022/06/25 00:37:46;;;;;;;;;2.50;2.00;;;;;21.79;53.02;100535.78;5099868;27;45342;-72
2022/06/25 00:40:12;;;;;;;;;2.50;2.50;;;;;21.74;53.03;100531.75;5101307;27;45287;-72
2022/06/25 00:42:45;;;;;;;;;2.25;2.25;;;;;21.81;53.41;100546.53;5099938;27;45673;-72
2022/06/25 00:45:11;;;;;;;;;2.00;2.00;;;;;21.76;53.36;100544.19;5101437;27;45408;-72
2022/06/25 00:47:37;;;;;;;;;4.75;3.00;;;;;21.93;53.16;100577.25;5101470;27;45249;-72
2022/06/25 00:50:03;;;;;;;;;2.00;2.00;;;;;21.91;52.98;100568.38;5101455;27;45333;-72
2022/06/25 00:52:32;;;;;;;;;3.00;3.00;;;;;21.93;53.38;100580.81;5099652;27;45369;-72
2022/06/25 00:55:12;;;;;;;;;2.50;2.50;;;;;21.87;53.02;100572.31;5099780;27;48332;-72
2022/06/25 00:57:43;;;;;;;;;2.00;2.00;;;;;21.67;52.72;100539.53;5099256;27;45192;-72
2022/06/25 01:00:15;;;;;;;;;3.00;3.00;;;;;21.92;53.40;100580.94;5091198;27;45250;-72
2022/06/25 01:02:42;;;;;;;;;2.00;2.00;;;;;21.72;52.88;100559.03;5086194;27;45345;-72
2022/06/25 01:05:10;;;;;;;;;6.00;2.00;;;;;21.79;53.25;100565.69;5101117;27;46322;-72
2022/06/25 01:07:38;;;;;;;;;2.00;2.00;;;;;21.83;52.90;100586.19;5100809;27;45292;-72
2022/06/25 01:10:06;;;;;;;;;2.25;2.25;;;;;21.73;53.43;100568.88;5096330;27;45406;-72
2022/06/25 01:12:32;;;;;;;;;2.00;2.00;;;;;21.70;53.09;100561.03;5070357;27;45453;-72
2022/06/25 01:15:10;;;;;;;;;2.00;2.00;;;;;21.60;53.41;100550.03;5094054;27;46158;-72
2022/06/25 01:17:41;;;;;;;;;2.00;2.00;;;;;21.75;52.97;100574.19;5100853;27;45422;-72
2022/06/25 01:20:07;;;;;;;;;2.00;2.00;;;;;21.71;53.58;100573.59;5100936;27;45305;-72
2022/06/25 01:22:33;;;;;;;;;3.00;2.00;;;;;21.58;52.72;100546.56;5099511;27;46063;-72
2022/06/25 01:24:59;;;;;;;;;4.00;2.75;;;;;21.76;53.18;100581.38;5100799;27;46002;-72
2022/06/25 01:27:24;;;;;;;;;0.25;0.00;;;;;21.57;53.40;100561.16;5096297;27;45338;-72
2022/06/25 01:29:50;;;;;;;;;2.25;2.25;;;;;21.71;53.08;100570.88;5079042;27;45289;-72
2022/06/25 01:32:15;;;;;;;;;3.50;3.25;;;;;21.49;52.67;100546.47;5099519;27;45242;-72
2022/06/25 01:34:40;;;;;;;;;5.00;2.00;;;;;21.43;53.37;100536.94;5099346;27;46935;-72
2022/06/25 01:37:06;;;;;;;;;2.25;2.00;;;;;21.62;53.00;100583.38;5100621;27;45243;-72
2022/06/25 01:39:32;;;;;;;;;1.00;1.00;;;;;21.54;53.14;100565.97;5099325;27;45370;-72
2022/06/25 01:41:57;;;;;;;;;2.50;1.00;;;;;21.49;53.10;100558.19;5092043;27;45267;-72
2022/06/25 01:44:23;;;;;;;;;2.00;1.25;;;;;21.43;53.11;100545.06;5100450;27;45581;-72
2022/06/25 01:46:49;;;;;;;;;2.00;2.00;;;;;21.52;53.28;100570.63;5100724;27;45511;-72
2022/06/25 01:49:14;;;;;;;;;2.00;2.00;;;;;21.35;53.43;100545.72;5100446;27;45447;-72
2022/06/25 01:51:39;;;;;;;;;3.00;1.25;;;;;21.39;53.55;100547.19;5111911;27;45352;-72
2022/06/25 01:54:05;;;;;;;;;2.75;1.00;;;;;21.38;53.42;100556.28;5100364;27;45395;-72
2022/06/25 01:56:30;;;;;;;;;4.00;1.00;;;;;21.31;53.55;100549.66;5100564;27;45361;-72
2022/06/25 01:58:55;;;;;;;;;2.00;2.00;;;;;21.24;53.70;100541.13;5100426;27;45299;-72
2022/06/25 02:01:21;;;;;;;;;0.75;0.75;;;;;21.45;53.65;100581.09;5096808;27;45299;-72
2022/06/25 02:03:46;;;;;;;;;1.25;1.25;;;;;21.38;53.88;100572.59;5098960;27;46965;-72
2022/06/25 02:06:11;;;;;;;;;1.50;1.50;;;;;21.26;54.01;100552.72;5100066;27;45544;-72
2022/06/25 02:08:38;;;;;;;;;1.00;1.00;;;;;21.35;53.87;100564.72;5100500;27;45499;-72
2022/06/25 02:11:06;;;;;;;;;1.75;1.75;;;;;21.28;54.00;100555.31;5100357;27;45226;-72
2022/06/25 02:13:32;;;;;;;;;1.75;1.00;;;;;21.29;53.71;100554.34;5098522;27;48273;-72
2022/06/25 02:15:58;;;;;;;;;1.00;1.00;;;;;21.45;54.37;100578.38;5099998;27;45530;-72
2022/06/25 02:18:24;;;;;;;;;1.00;1.00;;;;;21.38;53.92;100575.31;5099045;27;45378;-72
2022/06/25 02:20:51;;;;;;;;;2.00;1.00;;;;;21.33;54.47;100576.66;5099929;27;45349;-72
2022/06/25 02:23:17;;;;;;;;;0.50;0.50;;;;;21.28;54.03;100566.19;5100142;27;46193;-72
2022/06/25 02:25:43;;;;;;;;;2.00;1.00;;;;;21.31;54.72;100568.66;5100018;27;45414;-72
2022/06/25 02:28:08;;;;;;;;;2.75;1.00;;;;;21.22;54.56;100544.97;5100380;27;45389;-72
2022/06/25 02:30:34;;;;;;;;;1.75;1.00;;;;;21.24;54.46;100551.13;5095148;27;45866;-72
2022/06/25 02:32:59;;;;;;;;;0.50;0.50;;;;;21.41;54.56;100576.91;5092687;27;45338;-72
2022/06/25 02:35:24;;;;;;;;;3.00;1.50;;;;;21.19;54.96;100534.34;5078696;27;45246;-72
2022/06/25 02:37:50;;;;;;;;;1.50;1.50;;;;;21.45;54.91;100570.25;5092415;27;45625;-72
2022/06/25 02:40:15;;;;;;;;;1.00;1.00;;;;;21.46;54.63;100580.13;5099801;27;45167;-72
2022/06/25 02:42:41;;;;;;;;;1.50;1.50;;;;;21.23;54.77;100546.69;5102659;27;46485;-72
2022/06/25 02:45:08;;;;;;;;;0.00;0.00;;;;;21.27;54.91;100562.59;5102926;27;45276;-72
2022/06/25 02:47:34;;;;;;;;;1.75;1.75;;;;;21.27;54.96;100561.75;5102151;27;45892;-72
2022/06/25 02:49:59;;;;;;;;;1.00;1.00;;;;;21.43;55.08;100592.13;5081688;27;45487;-72
2022/06/25 02:52:25;;;;;;;;;1.00;0.00;;;;;21.25;54.84;100575.44;5095671;27;46234;-72
2022/06/25 02:54:51;;;;;;;;;0.25;0.25;;;;;21.27;55.08;100575.31;5103275;27;45370;-72
2022/06/25 03:00:01;;;;;;;;;1.00;1.00;;;;;21.24;55.96;100594.56;5103016;27;45317;-72
2022/06/25 03:02:27;;;;;;;;;1.00;1.00;;;;;21.31;55.93;100614.81;5089027;27;46097;-72
2022/06/25 03:04:52;;;;;;;;;2.00;0.25;;;;;21.36;56.39;100620.72;5103269;27;45379;-72
2022/06/25 03:07:18;;;;;;;;;0.00;0.00;;;;;21.03;56.78;100581.72;5088264;27;45334;-72
2022/06/25 03:09:43;;;;;;;;;2.50;1.00;;;;;21.12;57.74;100598.22;5103225;27;45216;-72
2022/06/25 03:12:09;;;;;;;;;1.00;1.00;;;;;21.21;58.06;100611.94;5085129;27;46993;-72
2022/06/25 03:14:34;;;;;;;;;0.00;0.00;;;;;20.99;57.28;100582.09;5101722;27;45614;-72
2022/06/25 03:16:59;;;;;;;;;0.00;0.00;;;;;21.04;57.94;100594.28;5088015;27;45255;-72
2022/06/25 03:19:27;;;;;;;;;1.50;1.00;;;;;21.12;58.11;100612.69;5103148;27;45266;-72
2022/06/25 03:21:52;;;;;;;;;0.00;0.00;;;;;21.20;57.94;100622.94;5098541;27;47459;-72
2022/06/25 03:24:18;;;;;;;;;0.00;0.00;;;;;21.07;57.77;100607.63;5102810;27;45402;-72
2022/06/25 03:26:43;;;;;;;;;0.00;0.00;;;;;21.00;57.85;100597.34;5102896;27;45487;-72
2022/06/25 03:29:09;;;;;;;;;0.00;0.00;;;;;21.16;57.69;100618.75;5102905;27;45309;-72
2022/06/25 03:31:35;;;;;;;;;0.00;0.00;;;;;21.01;57.86;100594.53;5098640;27;48113;-72
2022/06/25 03:34:00;;;;;;;;;0.00;0.00;;;;;20.90;57.85;100579.09;5101515;27;46206;-72
2022/06/25 03:36:26;;;;;;;;;0.00;0.00;;;;;20.87;57.84;100581.19;5101100;27;45420;-72
2022/06/25 03:38:51;;;;;;;;;0.00;0.00;;;;;20.89;57.89;100593.63;5102597;27;45393;-72
2022/06/25 03:41:32;;;;;;;;;1.00;0.00;;;;;20.88;57.72;100601.91;5100849;27;47685;-72
2022/06/25 03:43:58;;;;;;;;;1.50;0.00;;;;;20.85;57.59;100604.88;5102715;27;45408;-72
2022/06/25 03:46:24;;;;;;;;;0.00;0.00;;;;;20.89;57.88;100614.50;5102580;27;45276;-72
2022/06/25 03:48:49;;;;;;;;;0.00;0.00;;;;;20.80;57.66;100591.66;5102498;27;45411;-72
2022/06/25 03:51:14;;;;;;;;;0.00;0.00;;;;;;;;5100504;27;45747;-72
2022/06/25 03:53:40;;;;;;;;;0.00;0.00;;;;;20.76;57.78;100598.28;5100998;27;45224;-72
2022/06/25 03:56:06;;;;;;;;;0.00;0.00;;;;;20.85;58.08;100611.16;5102234;27;45444;-72
2022/06/25 03:58:31;;;;;;;;;0.00;0.00;;;;;20.87;58.02;100613.75;5102311;27;45479;-72
2022/06/25 04:00:57;;;;;;;;;0.00;0.00;;;;;20.77;57.98;100591.03;5101997;27;46205;-72
2022/06/25 04:03:22;;;;;;;;;1.50;0.00;;;;;20.89;57.93;100606.34;5102154;27;45390;-72
2022/06/25 04:05:47;;;;;;;;;0.00;0.00;;;;;20.88;58.59;100613.63;5102184;27;45383;-72
2022/06/25 04:08:13;;;;;;;;;0.00;0.00;;;;;20.82;58.59;100603.25;5102180;27;45205;-72
2022/06/25 04:10:38;;;;;;;;;0.00;0.00;;;;;20.87;58.25;100605.63;5100706;27;46956;-72
2022/06/25 04:13:04;;;;;;;;;0.00;0.00;;;;;20.83;58.41;100598.69;5102368;27;45234;-72
2022/06/25 04:15:29;;;;;;;;;0.00;0.00;;;;;21.00;58.16;100636.22;5102035;27;45629;-72
2022/06/25 04:17:55;;;;;;;;;0.00;0.00;;;;;20.87;58.42;100619.19;5102355;27;45546;-72
2022/06/25 04:20:20;;;;;;;;;0.00;0.00;;;;;20.96;58.83;100626.59;5101264;27;45318;-72
2022/06/25 04:22:46;;;;;;;;;0.00;0.00;;;;;20.87;58.67;100601.03;5102066;27;45254;-72
2022/06/25 04:25:11;;;;;;;;;3.25;0.25;;;;;20.89;58.52;100609.91;5101956;27;45233;-72
2022/06/25 04:30:21;;;;;;;;;0.25;0.25;;;;;20.91;58.70;100620.66;5101477;27;45343;-72
2022/06/25 04:32:46;;;;;;;;;2.25;0.75;;;;;20.94;58.71;100622.28;5100876;27;45341;-72
2022/06/25 04:35:12;;;;;;;;;0.00;0.00;;;;;20.85;58.67;100622.00;5101878;27;45190;-72
2022/06/25 04:37:37;;;;;;;;;1.00;1.00;;;;;21.00;58.32;100644.38;5101494;27;45364;-72
2022/06/25 04:40:03;;;;;;;;;0.25;0.25;;;;;20.85;58.62;100619.28;5099954;27;45842;-72
2022/06/25 04:42:28;;;;;;;;;1.00;1.00;;;;;21.05;58.90;100652.16;5101508;27;45443;-72
2022/06/25 04:44:53;;;;;;;;;0.00;0.00;;;;;20.88;58.19;100618.19;5101492;27;45433;-71
2022/06/25 04:47:19;;;;;;;;;0.00;0.00;;;;;20.93;58.71;100626.81;5090190;27;45539;-72
2022/06/25 04:49:44;;;;;;;;;0.00;0.00;;;;;21.02;58.23;100646.97;5097181;27;45511;-72
2022/06/25 04:52:10;;;;;;;;;0.00;0.00;;;;;20.99;58.26;100642.63;5099934;27;45342;-72
2022/06/25 04:54:35;;;;;;;;;1.00;1.00;;;;;21.01;58.25;100661.50;5086255;27;45428;-72
2022/06/25 04:57:01;;;;;;;;;1.00;1.00;;;;;20.83;58.51;100636.66;5101498;27;45529;-72
2022/06/25 04:59:27;;;;;;;;;1.00;1.00;;;;;20.83;58.40;100639.38;5101096;27;45516;-72
2022/06/25 05:01:52;;;;;;;;;0.50;0.00;;;;;20.87;58.66;100643.59;5101182;27;45440;-72
2022/06/25 05:04:18;;;;;;;;;0.00;0.00;;;;;20.98;58.51;100670.78;5099059;27;45394;-72
2022/06/25 05:06:44;;;;;;;;;1.00;1.00;;;;;20.97;58.46;100662.75;5101077;27;45499;-72
2022/06/25 05:09:09;;;;;;;;;1.25;0.75;;;;;20.98;58.50;100673.47;5101094;27;45327;-72
2022/06/25 05:11:35;;;;;;;;;0.25;0.25;;;;;20.63;58.53;100617.38;5101301;27;45419;-72
2022/06/25 05:14:00;;;;;;;;;0.00;0.00;;;;;20.84;58.03;100657.38;5101219;27;45263;-72
2022/06/25 05:16:26;;;;;;;;;0.25;0.25;;;;;20.83;58.48;100652.94;5101299;27;45134;-74
2022/06/25 05:18:52;;;;;;;;;2.50;0.75;;;;;20.97;57.94;100679.03;5099480;27;48159;-74
2022/06/25 05:21:17;;;;;;;;;1.00;1.00;;;;;20.97;57.89;100684.44;5100434;27;45293;-72
2022/06/25 05:23:43;;;;;;;;;1.00;1.00;;;;;21.01;58.39;100692.22;5099740;27;45417;-72
2022/06/25 05:26:08;;;;;;;;;1.00;1.00;;;;;20.78;58.13;100650.59;5100344;27;45578;-72
2022/06/25 05:28:33;;;;;;;;;0.00;0.00;;;;;20.78;57.82;100660.56;5100525;27;46116;-72
2022/06/25 05:30:59;;;;;;;;;1.50;1.00;;;;;20.79;58.30;100656.88;5100579;27;45299;-72
2022/06/25 05:33:24;;;;;;;;;1.00;1.00;;;;;20.73;57.84;100660.91;5085927;27;45678;-72
2022/06/25 05:35:49;;;;;;;;;1.00;0.00;;;;;20.84;58.40;100670.97;5101207;27;45399;-71
2022/06/25 05:38:15;;;;;;;;;1.00;0.00;;;;;20.77;58.01;100661.56;5100561;27;46218;-71
2022/06/25 05:40:40;;;;;;;;;0.00;0.00;;;;;20.84;57.59;100668.25;5099344;27;45432;-72
2022/06/25 05:43:06;;;;;;;;;3.00;1.00;;;;;20.95;57.84;100673.72;5115455;27;45437;-72
2022/06/25 05:45:32;;;;;;;;;1.00;1.00;;;;;21.05;58.27;100690.16;5100899;27;45251;-71
2022/06/25 05:47:57;;;;;;;;;3.00;1.00;;;;;21.07;58.02;100689.03;5100449;27;45369;-72
2022/06/25 05:50:23;;;;;;;;;1.50;1.00;;;;;20.98;58.18;100668.06;5091697;27;45467;-72
2022/06/25 05:52:48;;;;;;;;;0.00;0.00;;;;;20.94;58.07;100655.69;5103783;27;45455;-72
2022/06/25 05:55:14;;;;;;;;;0.50;0.50;;;;;21.18;57.98;100692.75;5100034;27;45226;-72
2022/06/25 05:57:39;;;;;;;;;1.00;1.00;;;;;20.92;57.57;100657.66;5100302;27;46494;-72
2022/06/25 06:00:06;;;;;;;;;2.00;1.00;;;;;20.87;57.24;100651.72;5100461;27;45266;-72
2022/06/25 06:02:31;;;;;;;;;0.00;0.00;;;;;20.99;57.34;100688.75;5100316;27;45151;-72
2022/06/25 06:04:56;;;;;;;;;1.00;1.00;;;;;20.98;57.16;100687.06;5100522;27;45310;-74
2022/06/25 06:07:22;;;;;;;;;1.00;1.00;;;;;20.83;57.43;100663.78;5098875;27;46219;-74
2022/06/25 06:09:47;;;;;;;;;0.75;0.75;;;;;20.79;57.04;100659.59;5099050;27;45222;-74
2022/06/25 06:12:13;;;;;;;;;0.75;0.75;;;;;20.85;57.20;100659.13;5085462;27;45583;-74
2022/06/25 06:14:38;;;;;;;;;1.25;1.25;;;;;20.86;57.38;100663.56;5091036;27;45727;-74
2022/06/25 06:17:04;;;;;;;;;1.00;1.00;;;;;20.92;56.89;100672.09;5098804;27;46063;-74
2022/06/25 06:19:29;;;;;;;;;1.00;0.00;;;;;20.99;57.73;100686.03;5093943;27;45506;-74
2022/06/25 06:21:55;;;;;;;;;1.00;1.00;;;;;20.90;57.39;100668.63;5100599;27;45357;-74
2022/06/25 06:24:20;;;;;;;;;1.00;0.75;;;;;21.10;57.40;100710.50;5103924;27;45431;-74
2022/06/25 06:26:45;;;;;;;;;0.00;0.00;;;;;20.93;57.24;100675.66;5102300;27;46275;-74
2022/06/25 06:29:11;;;;;;;;;0.75;0.75;;;;;20.97;57.41;100681.75;5102593;27;45333;-74
2022/06/25 06:31:36;;;;;;;;;1.25;0.75;;;;;20.92;57.79;100669.38;5103695;27;45627;-74
2022/06/25 06:34:02;;;;;;;;;1.00;1.00;;;;;21.08;57.39;100685.34;5103678;27;45348;-73
2022/06/25 06:36:27;;;;;;;;;0.75;0.75;;;;;21.18;57.46;100707.19;5102084;27;48127;-74
2022/06/25 06:38:53;;;;;;;;;0.00;0.00;;;;;21.02;57.00;100674.97;5103640;27;45357;-74
2022/06/25 06:41:18;;;;;;;;;0.50;0.50;;;;;21.01;57.35;100677.78;5088223;27;45500;-71
2022/06/25 06:43:44;;;;;;;;;0.75;0.75;;;;;21.09;57.82;100689.78;5103556;27;45410;-71
2022/06/25 06:46:12;;;;;;;;;1.50;1.00;;;;;21.15;57.72;100696.59;5101835;27;46683;-71
2022/06/25 06:48:38;;;;;;;;;0.00;0.00;;;;;21.15;57.04;100691.16;5102418;27;45463;-74
2022/06/25 06:51:03;;;;;;;;;1.00;1.00;;;;;21.22;57.79;100710.56;5102916;27;45671;-73
2022/06/25 06:53:28;;;;;;;;;1.00;0.25;;;;;21.07;56.01;100682.75;5102868;27;45630;-74
2022/06/25 06:55:54;;;;;;;;;0.00;0.00;;;;;21.21;56.05;100708.81;5102337;27;46595;-74
2022/06/25 06:58:19;;;;;;;;;0.75;0.75;;;;;21.11;56.28;100703.22;5102697;27;45500;-74
2022/06/25 07:00:44;;;;;;;;;0.00;0.00;;;;;20.89;56.09;100671.47;5101073;27;45346;-74
2022/06/25 07:03:10;;;;;;;;;1.00;1.00;;;;;21.19;56.53;100716.22;5090203;27;45491;-68
2022/06/25 07:06:04;;;;;;;;;2.50;0.00;;;;;21.14;56.33;100702.13;5102715;27;45383;-68
2022/06/25 07:08:32;;;;;;;;;1.00;1.00;;;;;21.04;56.32;100683.00;5103061;27;45449;-66
2022/06/25 07:11:27;;;;;;;;;1.50;1.50;;;;;20.92;55.62;100665.81;5101640;27;45362;-66
2022/06/25 07:13:48;;;;;;;;;0.50;0.50;;;;;21.18;55.61;100709.91;5102974;27;45227;-66
2022/06/25 07:16:19;;;;;;;;;1.00;1.00;;;;;21.12;56.00;100704.09;5102900;27;46314;-66
2022/06/25 07:18:53;;;;;;;;;1.50;1.00;;;;;21.17;55.28;100712.75;5099808;27;45245;-66
2022/06/25 07:21:22;;;;;;;;;0.50;0.00;;;;;21.18;55.97;100709.03;5102557;27;45515;-66
2022/06/25 07:23:47;;;;;;;;;2.50;1.25;;;;;21.23;55.97;100725.84;5104787;27;45342;-66
2022/06/25 07:26:13;;;;;;;;;1.00;1.00;;;;;21.07;55.38;100699.03;5100936;27;46937;-66
2022/06/25 07:28:39;;;;;;;;;0.25;0.25;;;;;20.99;55.57;100680.63;5118319;27;45435;-67
2022/06/25 07:31:04;;;;;;;;;0.25;0.25;;;;;21.17;55.54;100705.47;5102825;27;45395;-67
2022/06/25 07:33:29;;;;;;;;;0.75;0.75;;;;;21.17;55.67;100719.06;5102663;27;45365;-70
2022/06/25 07:35:56;;;;;;;;;0.25;0.25;;;;;21.28;54.35;100726.34;5102575;27;46201;-68
2022/06/25 07:38:21;;;;;;;;;0.25;0.25;;;;;21.29;54.88;100734.38;5102623;27;45257;-69
2022/06/25 07:40:47;;;;;;;;;1.00;1.00;;;;;21.33;54.02;100736.84;5101894;27;45810;-69
2022/06/25 07:43:12;;;;;;;;;2.25;1.00;;;;;21.26;53.85;100722.88;5102594;27;45298;-67
2022/06/25 07:45:37;;;;;;;;;1.00;1.00;;;;;21.25;53.92;100721.16;5100919;27;48216;-67
2022/06/25 07:48:03;;;;;;;;;0.00;0.00;;;;;21.37;53.61;100733.78;5102418;27;45313;-67
2022/06/25 07:53:12;;;;;;;;;0.50;0.00;;;;;21.34;53.94;100736.72;5102437;27;45391;-70
2022/06/25 07:55:37;;;;;;;;;0.75;0.75;;;;;21.32;54.30;100738.72;5102320;27;46397;-73
2022/06/25 07:58:03;;;;;;;;;1.00;1.00;;;;;21.33;54.17;100739.56;5102224;27;45405;-73
2022/06/25 08:00:28;;;;;;;;;0.75;0.00;;;;;21.33;54.49;100737.72;5102196;27;45352;-72
2022/06/25 08:02:54;;;;;;;;;1.50;1.50;;;;;21.42;54.11;100750.59;5097375;27;45804;-71
2022/06/25 08:05:19;;;;;;;;;2.00;1.00;;;;;21.43;54.54;100749.59;5093331;27;46194;-71
2022/06/25 08:07:46;;;;;;;;;2.75;1.75;;;;;21.44;53.80;100756.75;5100893;27;45325;-72
2022/06/25 08:10:11;;;;;;;;;0.75;0.75;;;;;21.34;54.25;100730.44;5102062;27;45341;-72
2022/06/25 08:12:37;;;;;;;;;1.00;1.00;;;;;21.40;53.79;100735.38;5101963;27;45238;-72
2022/06/25 08:15:03;;;;;;;;;2.00;1.00;;;;;21.48;53.95;100749.25;5101843;27;45770;-73
2022/06/25 08:17:29;;;;;;;;;2.25;1.00;;;;;21.39;54.21;100731.81;5102021;27;45542;-73
2022/06/25 08:19:54;;;;;;;;;1.50;1.00;;;;;21.52;53.82;100752.59;5102168;27;45305;-73
2022/06/25 08:22:19;;;;;;;;;0.00;0.00;;;;;21.40;53.97;100736.28;5100367;27;45482;-73
2022/06/25 08:24:45;;;;;;;;;1.00;1.00;;;;;21.49;54.07;100750.16;5101751;27;51885;-73
2022/06/25 08:27:10;;;;;;;;;1.00;1.00;;;;;21.53;54.57;100762.47;5101797;27;45269;-72
2022/06/25 08:29:36;;;;;;;;;3.00;1.50;;;;;21.53;53.86;100760.63;5102031;27;45553;-73
2022/06/25 08:32:03;;;;;;;;;1.00;0.50;;;;;21.55;54.00;100766.81;5101673;27;45396;-72
2022/06/25 08:34:28;;;;;;;;;1.00;1.00;;;;;21.51;54.01;100762.59;5100341;27;45760;-72
2022/06/25 08:36:53;;;;;;;;;1.00;1.00;;;;;21.52;54.35;100760.75;5101523;27;45334;-73
2022/06/25 08:39:19;;;;;;;;;1.00;1.00;;;;;21.57;53.02;100780.28;5101420;27;45148;-70
2022/06/25 08:41:45;;;;;;;;;0.50;0.50;;;;;21.51;52.99;100776.19;5101284;27;45584;-72
2022/06/25 08:44:10;;;;;;;;;3.75;1.75;;;;;21.24;52.68;100733.88;5089307;27;47194;-73
2022/06/25 08:46:37;;;;;;;;;1.00;1.00;;;;;21.49;53.24;100775.44;5098803;27;45321;-73
2022/06/25 08:49:03;;;;;;;;;3.00;1.00;;;;;21.41;52.90;100767.00;5101658;27;45475;-73
2022/06/25 08:51:28;;;;;;;;;2.00;0.75;;;;;21.44;53.28;100778.47;5101290;27;45416;-73
2022/06/25 08:53:57;;;;;;;;;2.00;1.00;;;;;21.32;53.38;100760.44;5101630;27;45726;-73
2022/06/25 08:56:23;;;;;;;;;0.00;0.00;;;;;21.46;53.48;100791.94;5101292;27;45535;-73
2022/06/25 08:58:48;;;;;;;;;2.00;2.00;;;;;21.42;53.25;100783.16;5101414;27;45254;-72
2022/06/25 09:01:14;;;;;;;;;0.75;0.75;;;;;21.42;53.00;100785.88;5096490;27;45580;-73
2022/06/25 09:03:39;;;;;;;;;0.50;0.50;;;;;21.38;52.36;100786.22;5092410;27;45272;-73
2022/06/25 09:06:13;;;;;;;;;1.50;1.00;;;;;21.40;52.88;100787.84;5100958;27;45198;-66
2022/06/25 09:08:38;;;;;;;;;1.00;1.00;;;;;21.36;52.75;100786.34;5101374;27;45309;-68
2022/06/25 09:11:05;;;;;;;;;2.00;2.00;;;;;21.40;52.84;100786.97;5101168;27;45431;-66
2022/06/25 09:13:30;;;;;;;;;2.25;1.00;;;;;21.32;53.53;100774.00;5101364;27;45279;-69
2022/06/25 09:15:56;;;;;;;;;1.00;1.00;;;;;21.34;53.52;100771.19;5100835;27;45251;-67
2022/06/25 09:18:21;;;;;;;;;1.00;1.00;;;;;21.38;53.60;100773.50;5101566;27;45516;-67
2022/06/25 09:21:07;;;;;;;;;2.00;2.00;;;;;21.40;53.37;100774.28;5099298;27;45624;-67
2022/06/25 09:23:52;;;;;;;;;0.50;0.50;;;;;21.38;53.66;100776.22;5100882;27;46158;-67
2022/06/25 09:26:17;;;;;;;;;1.00;1.00;;;;;21.35;54.13;100772.88;5101194;27;45281;-67
2022/06/25 09:28:46;;;;;;;;;1.00;1.00;;;;;21.24;54.03;100754.72;5094640;27;45274;-67
2022/06/25 09:31:11;;;;;;;;;2.00;0.00;;;;;21.24;53.48;100755.59;5100677;27;45348;-67
2022/06/25 09:33:38;;;;;;;;;2.00;1.00;;;;;21.34;54.17;100758.47;5100714;27;46203;-67
2022/06/25 09:36:07;;;;;;;;;1.00;1.00;;;;;21.38;53.67;100772.66;5093417;27;45407;-67
2022/06/25 09:38:32;;;;;;;;;1.00;1.00;;;;;21.35;53.86;100762.03;5097141;27;45255;-67
2022/06/25 09:40:59;;;;;;;;;1.25;0.50;;;;;21.37;53.56;100766.38;5097913;27;45513;-68
2022/06/25 09:43:27;;;;;;;;;0.25;0.25;;;;;21.37;53.53;100758.22;5100208;27;46473;-68
2022/06/25 09:45:55;;;;;;;;;1.75;1.00;;;;;21.36;53.24;100767.34;5099140;27;45900;-66
2022/06/25 09:48:26;;;;;;;;;3.00;2.00;;;;;21.34;53.03;100766.59;5100501;27;45255;-67
2022/06/25 09:51:11;;;;;;;;;2.50;1.00;;;;;21.34;53.05;100768.47;5099547;27;45381;-67
2022/06/25 09:53:56;;;;;;;;;2.00;1.50;;;;;21.32;52.77;100776.72;5100496;27;45368;-67
2022/06/25 09:56:34;;;;;;;;;1.00;1.00;;;;;21.31;52.39;100771.41;5100436;27;45396;-67
2022/06/25 09:59:00;;;;;;;;;1.00;1.00;;;;;21.28;52.91;100772.50;5100487;27;45470;-67
2022/06/25 10:01:28;;;;;;;;;1.00;1.00;;;;;21.28;53.01;100776.09;5093699;27;45520;-67
2022/06/25 10:03:53;;;;;;;;;2.75;1.00;;;;;21.26;53.08;100779.91;5087629;27;45665;-66
2022/06/25 10:06:21;;;;;;;;;1.00;1.00;;;;;21.17;52.29;100759.75;5099569;27;45431;-67
2022/06/25 10:08:55;;;;;;;;;3.50;1.00;;;;;21.24;52.46;100771.00;5099013;27;45410;-67
2022/06/25 10:11:24;;;;;;;;;3.50;2.00;;;;;21.24;52.63;100768.28;5100233;27;45758;-67
2022/06/25 10:13:51;;;;;;;;;1.00;1.00;;;;;21.25;52.72;100760.03;5100005;27;46419;-67
2022/06/25 10:16:18;;;;;;;;;2.50;2.00;;;;;21.28;52.45;100770.66;5100314;27;45443;-67
2022/06/25 10:18:44;;;;;;;;;2.00;1.00;;;;;21.29;52.61;100775.09;5098814;27;45356;-66
2022/06/25 10:21:10;;;;;;;;;1.50;1.25;;;;;21.20;52.83;100753.22;5098310;27;45432;-65
2022/06/25 10:23:38;;;;;;;;;3.00;2.75;;;;;21.29;53.16;100760.66;5098606;27;45822;-67
2022/06/25 10:26:04;;;;;;;;;2.00;1.00;;;;;21.25;52.66;100751.91;5100310;27;45448;-67
2022/06/25 10:28:34;;;;;;;;;1.75;1.75;;;;;21.31;53.09;100755.97;5100102;27;45409;-66
2022/06/25 10:31:04;;;;;;;;;1.00;1.00;;;;;21.31;53.25;100761.41;5099933;27;45491;-66
2022/06/25 10:33:36;;;;;;;;;1.00;1.00;;;;;21.32;52.83;100757.72;5099789;27;46605;-67
2022/06/25 10:36:05;;;;;;;;;1.50;1.50;;;;;21.35;53.36;100762.91;5099447;27;45791;-67
2022/06/25 10:38:31;;;;;;;;;1.50;1.25;;;;;21.31;53.08;100752.41;5096793;27;45306;-68
2022/06/25 10:42:58;;;;;;;;;1.00;1.00;;;;;21.33;53.62;100762.13;5099544;27;45326;-68
2022/06/25 10:43:48;;;;;;;;;0.75;0.00;;;;;21.30;53.32;100754.25;5099736;27;46241;-68
2022/06/25 10:46:26;;;;;;;;;1.00;1.00;;;;;21.25;53.62;100762.75;5099742;27;45420;-67
2022/06/25 10:49:08;;;;;;;;;1.00;1.00;;;;;21.22;53.71;100759.41;5099935;27;45176;-67
2022/06/25 10:51:42;;;;;;;;;2.00;2.00;;;;;21.18;53.12;100760.63;5099209;27;45274;-68
2022/06/25 10:54:14;;;;;;;;;2.00;2.00;;;;;21.18;53.72;100757.91;5099823;27;46497;-68
2022/06/25 10:56:44;;;;;;;;;2.00;2.00;;;;;21.22;53.34;100757.56;5099527;27;45309;-68
2022/06/25 10:59:14;;;;;;;;;2.25;1.00;;;;;21.23;53.55;100764.72;5099573;27;45302;-68
2022/06/25 11:01:39;;;;;;;;;5.75;2.50;;;;;21.24;53.79;100763.72;5099703;27;45406;-68
2022/06/25 11:04:06;;;;;;;;;1.00;1.00;;;;;21.23;53.83;100759.31;5102673;27;45252;-68
2022/06/25 11:06:38;;;;;;;;;2.50;2.50;;;;;21.24;54.00;100761.00;5102319;27;45519;-68
2022/06/25 11:09:08;;;;;;;;;5.00;3.00;;;;;21.21;53.95;100754.97;5101653;27;45375;-66
2022/06/25 11:11:35;;;;;;;;;2.00;2.00;;;;;21.21;54.17;100761.25;5102904;27;45469;-69
2022/06/25 11:14:03;;;;;;;;;3.25;2.00;;;;;21.13;54.69;100741.97;5102290;27;46057;-70
2022/06/25 11:16:29;;;;;;;;;2.00;2.00;;;;;21.20;54.51;100748.66;5103046;27;45400;-69
2022/06/25 11:18:57;;;;;;;;;2.25;2.00;;;;;21.30;54.17;100765.13;5102823;27;45322;-69
2022/06/25 11:21:27;;;;;;;;;2.00;2.00;;;;;21.36;54.66;100771.91;5102249;27;45346;-69
2022/06/25 11:23:53;;;;;;;;;1.25;1.25;;;;;21.33;53.67;100759.44;5102576;27;45271;-69
2022/06/25 11:29:03;;;;;;;;;2.50;2.00;;;;;21.33;54.61;100758.56;5102779;27;45425;-69
2022/06/25 11:31:33;;;;;;;;;2.50;2.00;;;;;21.42;54.12;100769.59;5102422;27;45464;-69
2022/06/25 11:34:02;;;;;;;;;2.00;2.00;;;;;21.48;54.07;100770.13;5097933;27;47365;-69
2022/06/25 11:36:27;;;;;;;;;3.25;2.50;;;;;21.46;54.47;100771.06;5096095;27;45275;-69